createdAt,value
2022-12-28T00:01:33.492Z,100.00
2022-12-28T00:04:37.628Z,100.00
2022-12-28T00:07:40.395Z,100.00
2022-12-28T00:11:08.799Z,100.00
2022-12-28T00:14:07.232Z,100.00
2022-12-28T00:17:13.282Z,100.00
2022-12-28T00:20:18.323Z,100.00
2022-12-28T00:23:20.959Z,100.00
2022-12-28T00:26:23.889Z,100.00
2022-12-28T00:29:29.616Z,99.67
2022-12-28T00:32:32.729Z,98.96
2022-12-28T00:35:36.800Z,98.03
2022-12-28T00:38:40.089Z,98.12
2022-12-28T00:41:42.841Z,97.74
2022-12-28T00:44:46.864Z,98.10
2022-12-28T00:47:49.593Z,99.10
2022-12-28T00:50:53.823Z,99.71
2022-12-28T00:54:03.167Z,100.00
2022-12-28T00:57:05.872Z,100.00
2022-12-28T01:00:09.518Z,100.00
2022-12-28T01:03:12.267Z,100.00
2022-12-28T01:06:20.885Z,100.00
2022-12-28T01:09:25.785Z,100.00
2022-12-28T01:12:38.357Z,100.00
2022-12-28T01:15:41.308Z,100.00
2022-12-28T01:18:45.436Z,100.00
2022-12-28T01:21:50.896Z,100.00
2022-12-28T01:24:56.585Z,100.00
2022-12-28T01:27:59.276Z,100.00
2022-12-28T01:31:05.549Z,100.00
2022-12-28T01:34:08.216Z,100.00
2022-12-28T01:37:12.279Z,100.00
2022-12-28T01:40:18.950Z,100.00
2022-12-28T01:43:39.130Z,100.00
2022-12-28T01:46:45.259Z,100.00
2022-12-28T01:49:57.478Z,100.00
2022-12-28T01:53:05.128Z,100.00
2022-12-28T01:56:11.486Z,100.00
2022-12-28T01:59:14.257Z,100.00
2022-12-28T02:02:21.490Z,100.00
2022-12-28T02:05:28.632Z,100.00
2022-12-28T02:08:41.307Z,100.00
2022-12-28T02:11:45.009Z,100.00
2022-12-28T02:14:48.184Z,100.00
2022-12-28T02:17:51.671Z,100.00
2022-12-28T02:21:15.852Z,100.00
2022-12-28T02:24:46.439Z,100.00
2022-12-28T02:28:00.842Z,100.00
2022-12-28T02:31:16.380Z,100.00
2022-12-28T02:34:26.616Z,100.00
2022-12-28T02:37:36.729Z,100.00
2022-12-28T02:40:44.168Z,100.00
2022-12-28T02:43:47.494Z,100.00
2022-12-28T02:47:08.991Z,100.00
2022-12-28T02:50:17.075Z,100.00
2022-12-28T02:53:50.273Z,100.00
2022-12-28T02:57:03.075Z,100.00
2022-12-28T03:00:08.390Z,100.00
2022-12-28T03:03:31.368Z,100.00
2022-12-28T03:07:00.323Z,100.00
2022-12-28T03:10:12.805Z,100.00
2022-12-28T03:13:39.976Z,100.00
2022-12-28T03:17:02.236Z,100.00
2022-12-28T03:20:29.994Z,100.00
2022-12-28T03:23:52.837Z,100.00
2022-12-28T03:27:31.135Z,100.00
2022-12-28T03:30:52.844Z,100.00
2022-12-28T03:34:06.566Z,100.00
2022-12-28T03:37:18.705Z,100.00
2022-12-28T03:40:28.731Z,100.00
2022-12-28T03:43:41.761Z,100.00
2022-12-28T03:46:48.997Z,100.00
2022-12-28T03:49:52.120Z,100.00
2022-12-28T03:52:56.625Z,100.00
2022-12-28T03:56:10.566Z,100.00
2022-12-28T03:59:13.367Z,100.00
2022-12-28T04:02:16.189Z,100.00
2022-12-28T04:05:19.000Z,100.00
2022-12-28T04:08:24.444Z,100.00
2022-12-28T04:11:33.587Z,100.00
2022-12-28T04:14:36.312Z,100.00
2022-12-28T04:17:41.218Z,100.00
2022-12-28T04:20:44.760Z,100.00
2022-12-28T04:23:49.233Z,100.00
2022-12-28T04:26:54.269Z,100.00
2022-12-28T04:29:58.863Z,100.00
2022-12-28T04:33:06.437Z,100.00
2022-12-28T04:36:12.168Z,100.00
2022-12-28T04:39:16.221Z,100.00
2022-12-28T04:42:18.987Z,100.00
2022-12-28T04:45:22.391Z,100.00
2022-12-28T04:48:33.103Z,100.00
2022-12-28T04:51:36.015Z,100.00
2022-12-28T04:54:40.192Z,100.00
2022-12-28T04:57:46.566Z,100.00
2022-12-28T05:01:04.310Z,100.00
2022-12-28T05:04:08.808Z,100.00
2022-12-28T05:07:13.696Z,100.00
2022-12-28T05:10:17.878Z,100.00
2022-12-28T05:13:23.587Z,100.00
2022-12-28T05:16:28.448Z,100.00
2022-12-28T05:19:31.210Z,100.00
2022-12-28T05:22:39.073Z,100.00
2022-12-28T05:25:52.555Z,100.00
2022-12-28T05:28:56.984Z,100.00
2022-12-28T05:31:59.690Z,100.00
2022-12-28T05:35:04.579Z,100.00
2022-12-28T05:38:10.003Z,100.00
2022-12-28T05:41:17.434Z,100.00
2022-12-28T05:44:20.120Z,100.00
2022-12-28T05:47:24.935Z,100.00
2022-12-28T05:50:30.702Z,100.00
2022-12-28T05:53:35.758Z,100.00
2022-12-28T05:56:50.745Z,100.00
2022-12-28T05:59:53.470Z,100.00
2022-12-28T06:02:56.488Z,100.00
2022-12-28T06:06:04.449Z,100.00
2022-12-28T06:09:07.223Z,100.00
2022-12-28T06:12:11.279Z,100.00
2022-12-28T06:15:13.957Z,100.00
2022-12-28T06:18:16.940Z,100.00
2022-12-28T06:21:21.506Z,100.00
2022-12-28T06:24:24.213Z,100.00
2022-12-28T06:27:28.266Z,100.00
2022-12-28T06:30:31.018Z,100.00
2022-12-28T06:33:34.266Z,100.00
2022-12-28T06:36:38.663Z,100.00
2022-12-28T06:39:41.347Z,100.00
2022-12-28T06:42:45.413Z,100.00
2022-12-28T06:45:58.099Z,100.00
2022-12-28T06:49:01.047Z,100.00
2022-12-28T06:52:03.907Z,100.00
2022-12-28T06:55:07.520Z,100.00
2022-12-28T06:58:11.595Z,100.00
2022-12-28T07:01:16.434Z,100.00
2022-12-28T07:04:19.208Z,100.00
2022-12-28T07:07:29.227Z,100.00
2022-12-28T07:10:31.920Z,100.00
2022-12-28T07:13:36.486Z,100.00
2022-12-28T07:19:41.131Z,100.00
2022-12-28T07:22:46.965Z,100.00
2022-12-28T07:25:49.657Z,100.00
2022-12-28T07:29:02.018Z,100.00
2022-12-28T07:32:05.155Z,100.00
2022-12-28T07:35:09.090Z,100.00
2022-12-28T07:38:12.440Z,100.00
2022-12-28T07:41:20.529Z,100.00
2022-12-28T07:44:29.581Z,100.00
2022-12-28T07:47:34.337Z,100.00
2022-12-28T07:50:38.255Z,100.00
2022-12-28T07:53:41.942Z,100.00
2022-12-28T07:56:44.767Z,100.00
2022-12-28T07:59:48.825Z,100.00
2022-12-28T08:02:51.551Z,100.00
2022-12-28T08:05:54.275Z,100.00
2022-12-28T08:09:00.098Z,100.00
2022-12-28T08:12:05.565Z,100.00
2022-12-28T08:15:11.797Z,100.00
2022-12-28T08:18:14.477Z,100.00
2022-12-28T08:21:21.554Z,100.00
2022-12-28T08:24:24.584Z,100.00
2022-12-28T08:27:27.269Z,100.00
2022-12-28T08:30:31.493Z,100.00
2022-12-28T08:33:34.301Z,100.00
2022-12-28T08:36:37.405Z,99.89
2022-12-28T08:39:40.104Z,99.86
2022-12-28T08:42:43.267Z,99.44
2022-12-28T08:45:57.889Z,99.27
2022-12-28T08:49:02.096Z,99.49
2022-12-28T08:52:05.057Z,99.40
2022-12-28T08:55:08.372Z,99.07
2022-12-28T08:58:11.102Z,98.98
2022-12-28T09:01:17.495Z,98.96
2022-12-28T09:04:22.788Z,98.90
2022-12-28T09:07:28.500Z,98.61
2022-12-28T09:10:37.410Z,98.24
2022-12-28T09:13:54.181Z,98.55
2022-12-28T09:16:58.415Z,98.07
2022-12-28T09:20:08.191Z,97.43
2022-12-28T09:23:10.886Z,97.14
2022-12-28T09:26:15.046Z,96.81
2022-12-28T09:29:17.797Z,95.39
2022-12-28T09:32:22.483Z,95.34
2022-12-28T09:35:27.322Z,95.16
2022-12-28T09:38:31.815Z,95.30
2022-12-28T09:41:40.596Z,94.27
2022-12-28T09:44:56.078Z,93.90
2022-12-28T09:48:08.556Z,92.73
2022-12-28T09:51:11.455Z,92.47
2022-12-28T09:54:14.334Z,91.51
2022-12-28T09:57:20.132Z,91.10
2022-12-28T10:00:25.218Z,91.79
2022-12-28T10:03:36.136Z,91.26
2022-12-28T10:06:40.467Z,91.40
2022-12-28T10:09:43.569Z,89.77
2022-12-28T10:12:48.500Z,89.71
2022-12-28T10:15:52.635Z,89.83
2022-12-28T10:18:58.587Z,89.97
2022-12-28T10:22:04.126Z,89.23
2022-12-28T10:25:14.944Z,89.41
2022-12-28T10:28:24.265Z,89.87
2022-12-28T10:31:38.745Z,89.88
2022-12-28T10:34:58.545Z,90.07
2022-12-28T10:38:07.602Z,89.65
2022-12-28T10:41:14.450Z,88.47
2022-12-28T10:44:40.365Z,88.53
2022-12-28T10:47:45.861Z,87.75
2022-12-28T10:50:54.283Z,87.48
2022-12-28T10:53:58.256Z,87.00
2022-12-28T10:57:02.632Z,86.25
2022-12-28T11:00:16.696Z,85.83
2022-12-28T11:03:25.742Z,85.84
2022-12-28T11:06:33.131Z,85.30
2022-12-28T11:09:36.932Z,84.98
2022-12-28T11:12:44.246Z,84.93
2022-12-28T11:15:47.695Z,84.66
2022-12-28T11:18:51.446Z,84.41
2022-12-28T11:21:55.609Z,83.64
2022-12-28T11:25:02.038Z,83.20
2022-12-28T11:28:12.432Z,82.63
2022-12-28T11:31:25.051Z,82.64
2022-12-28T11:34:29.688Z,82.47
2022-12-28T11:37:34.697Z,81.89
2022-12-28T11:40:52.489Z,81.97
2022-12-28T11:43:56.105Z,80.74
2022-12-28T11:47:05.002Z,80.81
2022-12-28T11:50:44.158Z,80.27
2022-12-28T11:53:53.929Z,79.37
2022-12-28T11:57:01.084Z,79.18
2022-12-28T12:00:41.321Z,78.80
2022-12-28T12:04:19.387Z,79.27
2022-12-28T12:07:31.552Z,79.04
2022-12-28T12:10:38.953Z,78.82
2022-12-28T12:13:44.631Z,79.06
2022-12-28T12:16:51.185Z,78.98
2022-12-28T12:20:04.130Z,78.64
2022-12-28T12:23:11.684Z,77.92
2022-12-28T12:26:28.162Z,77.65
2022-12-28T12:29:39.354Z,77.82
2022-12-28T12:32:46.589Z,77.04
2022-12-28T12:36:00.743Z,77.05
2022-12-28T12:39:23.607Z,77.33
2022-12-28T12:42:36.515Z,77.30
2022-12-28T12:45:58.784Z,77.31
2022-12-28T12:49:25.568Z,77.55
2022-12-28T12:52:50.535Z,76.54
2022-12-28T12:56:04.385Z,77.15
2022-12-28T12:59:34.297Z,77.10
2022-12-28T13:03:23.970Z,76.54
2022-12-28T13:06:31.291Z,76.68
2022-12-28T13:09:35.944Z,76.27
2022-12-28T13:12:42.430Z,75.99
2022-12-28T13:15:46.756Z,75.72
2022-12-28T13:19:05.070Z,75.80
2022-12-28T13:22:26.439Z,76.11
2022-12-28T13:25:30.998Z,75.45
2022-12-28T13:28:36.774Z,75.40
2022-12-28T13:31:42.371Z,76.10
2022-12-28T13:38:14.392Z,75.68
2022-12-28T13:41:25.467Z,75.63
2022-12-28T13:44:34.757Z,76.44
2022-12-28T13:47:42.184Z,76.64
2022-12-28T13:50:45.069Z,77.17
2022-12-28T13:53:52.339Z,77.24
2022-12-28T13:57:20.588Z,77.26
2022-12-28T14:00:24.783Z,77.29
2022-12-28T14:03:38.950Z,77.36
2022-12-28T14:06:43.901Z,76.66
2022-12-28T14:09:48.171Z,76.68
2022-12-28T14:12:52.438Z,77.06
2022-12-28T14:15:58.306Z,76.02
2022-12-28T14:19:04.490Z,76.67
2022-12-28T14:22:25.489Z,76.35
2022-12-28T14:25:28.314Z,76.47
2022-12-28T14:28:36.787Z,76.50
2022-12-28T14:31:40.179Z,77.06
2022-12-28T14:34:44.808Z,77.27
2022-12-28T14:37:52.673Z,77.81
2022-12-28T14:40:59.157Z,77.62
2022-12-28T14:44:14.197Z,78.00
2022-12-28T14:47:45.857Z,77.99
2022-12-28T14:50:58.493Z,78.14
2022-12-28T14:54:26.265Z,78.38
2022-12-28T14:57:36.957Z,77.48
2022-12-28T15:00:39.768Z,77.13
2022-12-28T15:03:54.277Z,77.86
2022-12-28T15:06:59.019Z,77.98
2022-12-28T15:10:03.636Z,78.30
2022-12-28T15:13:06.417Z,78.25
2022-12-28T15:16:12.651Z,78.34
2022-12-28T15:19:16.498Z,78.80
2022-12-28T15:22:20.676Z,78.86
2022-12-28T15:25:23.596Z,79.06
2022-12-28T15:28:29.279Z,79.33
2022-12-28T15:31:32.012Z,79.34
2022-12-28T15:34:34.724Z,78.71
2022-12-28T15:37:38.806Z,78.75
2022-12-28T15:40:41.786Z,79.00
2022-12-28T15:43:44.645Z,79.32
2022-12-28T15:46:49.846Z,79.37
2022-12-28T15:49:52.623Z,79.67
2022-12-28T15:52:58.737Z,79.98
2022-12-28T15:56:03.885Z,80.16
2022-12-28T15:59:15.546Z,79.60
2022-12-28T16:02:19.472Z,80.17
2022-12-28T16:05:26.317Z,79.97
2022-12-28T16:08:33.541Z,80.10
2022-12-28T16:11:36.510Z,80.01
2022-12-28T16:14:39.467Z,79.84
2022-12-28T16:17:51.378Z,80.13
2022-12-28T16:21:01.023Z,80.17
2022-12-28T16:24:05.725Z,80.25
2022-12-28T16:27:09.554Z,80.13
2022-12-28T16:30:13.424Z,80.12
2022-12-28T16:33:16.375Z,80.20
2022-12-28T16:36:20.076Z,80.13
2022-12-28T16:39:24.907Z,80.45
2022-12-28T16:42:27.897Z,80.63
2022-12-28T16:45:35.060Z,80.59
2022-12-28T16:48:38.644Z,81.04
2022-12-28T16:51:43.882Z,81.04
2022-12-28T16:54:48.013Z,81.30
2022-12-28T16:57:50.755Z,81.20
2022-12-28T17:00:53.537Z,81.17
2022-12-28T17:04:03.398Z,81.40
2022-12-28T17:07:06.609Z,81.61
2022-12-28T17:10:11.718Z,81.26
2022-12-28T17:13:16.397Z,81.35
2022-12-28T17:16:19.209Z,81.40
2022-12-28T17:19:22.546Z,80.97
2022-12-28T17:22:30.360Z,81.43
2022-12-28T17:25:36.338Z,81.44
2022-12-28T17:28:39.124Z,81.69
2022-12-28T17:31:41.960Z,81.49
2022-12-28T17:34:44.687Z,81.70
2022-12-28T17:37:47.718Z,81.65
2022-12-28T17:40:51.762Z,82.00
2022-12-28T17:43:55.885Z,81.82
2022-12-28T17:46:58.593Z,81.62
2022-12-28T17:50:01.321Z,81.57
2022-12-28T17:53:04.123Z,81.64
2022-12-28T17:56:10.283Z,81.28
2022-12-28T17:59:15.010Z,81.00
2022-12-28T18:02:20.058Z,81.34
2022-12-28T18:05:22.965Z,81.08
2022-12-28T18:08:25.939Z,81.33
2022-12-28T18:11:30.191Z,81.91
2022-12-28T18:14:32.914Z,81.49
2022-12-28T18:17:35.627Z,81.78
2022-12-28T18:20:38.370Z,82.11
2022-12-28T18:23:41.333Z,82.34
2022-12-28T18:26:45.437Z,82.86
2022-12-28T18:29:48.271Z,82.80
2022-12-28T18:32:51.048Z,82.61
2022-12-28T18:35:53.801Z,82.60
2022-12-28T18:38:56.605Z,82.79
2022-12-28T18:42:00.627Z,82.82
2022-12-28T18:45:03.587Z,83.08
2022-12-28T18:48:06.832Z,82.76
2022-12-28T18:51:12.335Z,82.76
2022-12-28T18:54:15.059Z,82.88
2022-12-28T18:57:19.188Z,83.27
2022-12-28T19:00:22.110Z,83.88
2022-12-28T19:03:24.999Z,83.87
2022-12-28T19:06:27.845Z,84.01
2022-12-28T19:09:30.621Z,83.75
2022-12-28T19:12:34.697Z,83.50
2022-12-28T19:15:37.569Z,84.01
2022-12-28T19:18:40.357Z,83.76
2022-12-28T19:21:43.464Z,83.95
2022-12-28T19:24:46.201Z,84.64
2022-12-28T19:27:50.789Z,84.77
2022-12-28T19:30:55.246Z,84.90
2022-12-28T19:34:02.065Z,84.66
2022-12-28T19:37:07.174Z,85.18
2022-12-28T19:40:10.797Z,85.06
2022-12-28T19:43:25.253Z,84.85
2022-12-28T19:46:32.091Z,85.11
2022-12-28T19:49:35.259Z,84.82
2022-12-28T19:52:37.961Z,84.82
2022-12-28T19:55:40.689Z,84.54
2022-12-28T19:58:46.029Z,84.90
2022-12-28T20:01:49.009Z,84.53
2022-12-28T20:04:51.770Z,84.55
2022-12-28T20:07:54.453Z,84.83
2022-12-28T20:10:57.816Z,84.55
2022-12-28T20:14:03.771Z,84.36
2022-12-28T20:17:06.502Z,84.09
2022-12-28T20:20:09.996Z,83.36
2022-12-28T20:23:16.737Z,83.55
2022-12-28T20:26:24.664Z,83.39
2022-12-28T20:29:28.845Z,82.76
2022-12-28T20:32:32.558Z,82.70
2022-12-28T20:35:35.221Z,82.04
2022-12-28T20:38:37.929Z,82.01
2022-12-28T20:41:58.182Z,81.90
2022-12-28T20:45:02.253Z,82.00
2022-12-28T20:48:05.578Z,81.57
2022-12-28T20:51:08.311Z,81.64
2022-12-28T20:54:11.679Z,81.28
2022-12-28T20:57:14.442Z,81.30
2022-12-28T21:00:19.091Z,81.68
2022-12-28T21:03:22.023Z,81.08
2022-12-28T21:06:25.081Z,80.94
2022-12-28T21:09:27.776Z,80.75
2022-12-28T21:12:30.569Z,80.52
2022-12-28T21:15:34.800Z,80.67
2022-12-28T21:18:37.527Z,80.44
2022-12-28T21:21:40.302Z,80.75
2022-12-28T21:24:43.090Z,80.24
2022-12-28T21:27:48.936Z,80.06
2022-12-28T21:30:55.719Z,79.97
2022-12-28T21:33:58.508Z,79.59
2022-12-28T21:37:21.821Z,79.56
2022-12-28T21:40:24.637Z,79.67
2022-12-28T21:43:27.709Z,79.27
2022-12-28T21:46:31.836Z,79.64
2022-12-28T21:49:34.564Z,79.40
2022-12-28T21:52:38.930Z,79.84
2022-12-28T21:55:44.462Z,79.89
2022-12-28T21:58:47.947Z,79.65
2022-12-28T22:02:10.540Z,79.34
2022-12-28T22:09:20.835Z,79.63
2022-12-28T22:12:37.336Z,78.65
2022-12-28T22:15:52.166Z,78.87
2022-12-28T22:19:03.972Z,78.56
2022-12-28T22:22:12.624Z,78.88
2022-12-28T22:25:16.107Z,78.88
2022-12-28T22:28:18.792Z,79.00
2022-12-28T22:31:21.710Z,78.59
2022-12-28T22:34:25.761Z,78.90
2022-12-28T22:37:29.170Z,78.74
2022-12-28T22:40:31.917Z,79.13
2022-12-28T22:43:34.666Z,79.63
2022-12-28T22:46:37.653Z,79.86
2022-12-28T22:49:41.802Z,80.37
2022-12-28T22:52:45.053Z,80.50
2022-12-28T22:55:57.507Z,81.11
2022-12-28T22:59:04.685Z,81.39
2022-12-28T23:02:08.102Z,81.71
2022-12-28T23:05:15.956Z,82.21
2022-12-28T23:08:18.740Z,82.71
2022-12-28T23:11:39.576Z,83.05
2022-12-28T23:14:59.970Z,83.81
2022-12-28T23:18:28.607Z,84.49
2022-12-28T23:21:50.624Z,85.43
2022-12-28T23:25:10.840Z,86.08
2022-12-28T23:28:16.055Z,86.64
2022-12-28T23:31:18.842Z,86.57
2022-12-28T23:34:21.570Z,86.91
2022-12-28T23:37:25.659Z,87.04
2022-12-28T23:40:28.840Z,86.78
2022-12-28T23:43:33.242Z,86.81
2022-12-28T23:46:41.284Z,86.39
2022-12-28T23:49:44.258Z,85.95
2022-12-28T23:52:48.367Z,85.38
2022-12-28T23:55:52.762Z,84.83
2022-12-28T23:58:58.587Z,84.22
